createdAt,value
2019-05-19T00:01:04.701Z,15.51
2019-05-19T00:03:33.372Z,15.47
2019-05-19T00:06:02.051Z,15.47
2019-05-19T00:08:30.761Z,15.49
2019-05-19T00:10:59.421Z,15.36
2019-05-19T00:13:28.105Z,15.45
2019-05-19T00:15:56.786Z,15.25
2019-05-19T00:18:25.482Z,15.22
2019-05-19T00:20:54.142Z,15.25
2019-05-19T00:23:22.823Z,15.16
2019-05-19T00:25:51.495Z,15.05
2019-05-19T00:28:20.175Z,15.06
2019-05-19T00:30:48.858Z,14.97
2019-05-19T00:33:17.535Z,15.02
2019-05-19T00:35:46.193Z,15.03
2019-05-19T00:38:14.858Z,14.88
2019-05-19T00:40:43.534Z,14.91
2019-05-19T00:43:12.378Z,14.82
2019-05-19T00:45:41.180Z,14.76
2019-05-19T00:48:09.879Z,14.78
2019-05-19T00:50:38.550Z,14.67
2019-05-19T00:53:07.325Z,14.65
2019-05-19T00:55:36.435Z,14.71
2019-05-19T00:58:05.698Z,14.69
2019-05-19T01:00:34.473Z,14.65
2019-05-19T01:03:03.146Z,14.63
2019-05-19T01:05:31.886Z,14.52
2019-05-19T01:08:00.558Z,14.48
2019-05-19T01:10:29.235Z,14.42
2019-05-19T01:12:57.905Z,14.37
2019-05-19T01:15:26.586Z,14.27
2019-05-19T01:17:55.265Z,14.20
2019-05-19T01:20:24.544Z,14.18
2019-05-19T01:22:53.204Z,14.10
2019-05-19T01:25:21.883Z,14.06
2019-05-19T01:27:50.580Z,14.03
2019-05-19T01:30:20.941Z,14.02
2019-05-19T01:32:49.608Z,13.98
2019-05-19T01:35:18.269Z,13.92
2019-05-19T01:37:46.979Z,13.94
2019-05-19T01:40:15.757Z,13.88
2019-05-19T01:42:44.430Z,13.91
2019-05-19T01:45:13.509Z,13.96
2019-05-19T01:47:42.219Z,13.95
2019-05-19T01:50:18.940Z,13.98
2019-05-19T01:52:41.774Z,13.99
2019-05-19T01:55:10.737Z,14.11
2019-05-19T01:57:39.416Z,14.05
2019-05-19T02:00:09.398Z,13.91
2019-05-19T02:02:38.092Z,13.80
2019-05-19T02:05:07.362Z,13.86
2019-05-19T02:07:36.230Z,13.89
2019-05-19T02:10:07.822Z,13.84
2019-05-19T02:12:36.485Z,13.85
2019-05-19T02:15:06.944Z,13.72
2019-05-19T02:17:35.617Z,13.58
2019-05-19T02:20:06.306Z,13.57
2019-05-19T02:22:35.032Z,13.54
2019-05-19T02:25:03.902Z,13.42
2019-05-19T02:27:32.569Z,13.46
2019-05-19T02:30:01.330Z,13.37
2019-05-19T02:32:30.079Z,13.41
2019-05-19T02:34:58.744Z,13.45
2019-05-19T02:37:27.416Z,13.39
2019-05-19T02:39:56.089Z,13.36
2019-05-19T02:42:27.688Z,13.42
2019-05-19T02:45:02.185Z,13.22
2019-05-19T02:47:31.709Z,13.25
2019-05-19T02:50:02.656Z,13.20
2019-05-19T02:52:32.551Z,13.17
2019-05-19T02:55:03.013Z,13.17
2019-05-19T02:57:33.593Z,13.11
2019-05-19T03:00:03.406Z,13.05
2019-05-19T03:02:32.076Z,12.93
2019-05-19T03:05:00.811Z,12.81
2019-05-19T03:07:29.468Z,12.76
2019-05-19T03:09:59.168Z,12.76
2019-05-19T03:12:27.875Z,12.77
2019-05-19T03:14:56.553Z,12.76
2019-05-19T03:17:25.260Z,12.84
2019-05-19T03:19:53.921Z,12.89
2019-05-19T03:22:22.678Z,12.95
2019-05-19T03:24:51.329Z,13.02
2019-05-19T03:27:19.998Z,13.15
2019-05-19T03:29:52.991Z,13.26
2019-05-19T03:32:38.244Z,13.34
2019-05-19T03:35:06.921Z,13.48
2019-05-19T03:37:35.588Z,13.65
2019-05-19T03:40:07.150Z,13.82
2019-05-19T03:42:35.838Z,14.02
2019-05-19T03:45:04.818Z,14.11
2019-05-19T03:47:33.483Z,14.15
2019-05-19T03:50:02.173Z,14.21
2019-05-19T03:52:30.869Z,14.29
2019-05-19T03:54:59.561Z,14.36
2019-05-19T03:57:28.215Z,14.58
2019-05-19T03:59:56.908Z,14.81
2019-05-19T04:02:25.587Z,15.12
2019-05-19T04:04:54.273Z,15.32
2019-05-19T04:07:22.955Z,15.47
2019-05-19T04:09:57.653Z,15.71
2019-05-19T04:12:27.369Z,15.82
2019-05-19T04:14:56.051Z,16.04
2019-05-19T04:17:26.017Z,16.21
2019-05-19T04:19:57.773Z,16.35
2019-05-19T04:22:26.449Z,16.43
2019-05-19T04:24:55.141Z,16.39
2019-05-19T04:27:23.842Z,16.39
2019-05-19T04:29:52.620Z,16.38
2019-05-19T04:32:21.320Z,16.46
2019-05-19T04:34:52.101Z,16.42
2019-05-19T04:37:23.935Z,16.52
2019-05-19T04:39:53.841Z,16.55
2019-05-19T04:42:22.508Z,16.58
2019-05-19T04:44:51.180Z,16.62
2019-05-19T04:47:19.837Z,16.42
2019-05-19T04:49:48.509Z,16.64
2019-05-19T04:52:17.174Z,16.77
2019-05-19T04:54:45.868Z,16.79
2019-05-19T04:57:14.532Z,16.79
2019-05-19T04:59:45.740Z,16.75
2019-05-19T05:02:19.619Z,16.66
2019-05-19T05:04:49.954Z,16.66
2019-05-19T05:07:18.646Z,17.10
2019-05-19T05:09:48.460Z,17.38
2019-05-19T05:12:17.152Z,17.66
2019-05-19T05:14:46.231Z,18.17
2019-05-19T05:17:14.934Z,18.28
2019-05-19T05:19:43.597Z,18.60
2019-05-19T05:22:21.781Z,18.95
2019-05-19T05:24:42.928Z,18.78
2019-05-19T05:27:13.603Z,18.44
2019-05-19T05:29:43.567Z,18.25
2019-05-19T05:32:12.289Z,18.49
2019-05-19T05:34:41.012Z,18.25
2019-05-19T05:37:09.694Z,17.79
2019-05-19T05:39:38.414Z,17.75
2019-05-19T05:42:07.086Z,17.57
2019-05-19T05:44:35.765Z,17.60
2019-05-19T05:47:04.421Z,17.74
2019-05-19T05:49:33.109Z,17.79
2019-05-19T05:52:03.282Z,18.19
2019-05-19T05:54:33.127Z,18.42
2019-05-19T05:57:04.493Z,18.22
2019-05-19T05:59:33.012Z,18.35
2019-05-19T06:02:01.702Z,18.74
2019-05-19T06:04:30.375Z,19.08
2019-05-19T06:06:59.044Z,19.54
2019-05-19T06:09:29.054Z,20.00
2019-05-19T06:11:58.279Z,20.23
2019-05-19T06:14:27.452Z,20.54
2019-05-19T06:16:56.188Z,20.55
2019-05-19T06:19:26.202Z,20.76
2019-05-19T06:21:58.449Z,21.18
2019-05-19T06:24:35.027Z,21.55
2019-05-19T06:27:07.932Z,21.55
2019-05-19T06:29:45.603Z,21.77
2019-05-19T06:32:36.489Z,21.97
2019-05-19T06:38:31.521Z,22.25
2019-05-19T06:41:03.771Z,22.73
2019-05-19T06:43:35.629Z,22.89
2019-05-19T06:46:04.292Z,23.34
2019-05-19T06:48:32.988Z,23.27
2019-05-19T06:51:01.934Z,23.26
2019-05-19T06:53:32.127Z,22.95
2019-05-19T06:56:01.191Z,23.19
2019-05-19T06:58:29.865Z,22.98
2019-05-19T07:01:00.660Z,23.18
2019-05-19T07:03:30.344Z,23.68
2019-05-19T07:05:59.088Z,23.76
2019-05-19T07:08:30.506Z,23.87
2019-05-19T07:11:05.259Z,23.56
2019-05-19T07:13:37.902Z,23.60
2019-05-19T07:16:06.689Z,23.69
2019-05-19T07:18:38.376Z,23.15
2019-05-19T07:21:07.089Z,23.37
2019-05-19T07:23:37.329Z,23.59
2019-05-19T07:26:05.978Z,23.76
2019-05-19T07:28:34.663Z,23.67
2019-05-19T07:31:05.588Z,23.90
2019-05-19T07:33:34.253Z,24.08
2019-05-19T07:36:02.913Z,23.95
2019-05-19T07:38:31.638Z,24.38
2019-05-19T07:41:00.363Z,24.90
2019-05-19T07:43:29.032Z,25.13
2019-05-19T07:45:57.707Z,25.67
2019-05-19T07:48:26.380Z,25.41
2019-05-19T07:50:55.054Z,24.90
2019-05-19T07:53:24.562Z,24.82
2019-05-19T07:55:53.255Z,24.95
2019-05-19T07:58:22.098Z,25.00
2019-05-19T08:00:55.748Z,25.21
2019-05-19T08:03:24.430Z,25.57
2019-05-19T08:05:57.132Z,25.85
2019-05-19T08:08:25.950Z,25.86
2019-05-19T08:10:54.644Z,26.16
2019-05-19T08:13:23.316Z,26.43
2019-05-19T08:15:52.004Z,27.25
2019-05-19T08:18:20.706Z,26.54
2019-05-19T08:20:49.370Z,27.29
2019-05-19T08:23:18.062Z,27.62
2019-05-19T08:25:46.744Z,28.02
2019-05-19T08:28:15.434Z,28.42
2019-05-19T08:30:44.119Z,28.23
2019-05-19T08:33:12.868Z,28.21
2019-05-19T08:35:41.579Z,28.37
2019-05-19T08:38:10.265Z,28.51
2019-05-19T08:40:38.933Z,27.72
2019-05-19T08:43:09.215Z,27.71
2019-05-19T08:45:37.936Z,27.77
2019-05-19T08:48:06.610Z,27.85
2019-05-19T08:50:35.306Z,27.77
2019-05-19T08:53:04.121Z,28.05
2019-05-19T08:55:32.873Z,27.55
2019-05-19T08:58:01.630Z,28.03
2019-05-19T09:00:30.378Z,28.56
2019-05-19T09:02:59.097Z,29.54
2019-05-19T09:05:27.760Z,32.06
2019-05-19T09:07:56.416Z,34.43
2019-05-19T09:10:25.095Z,34.67
2019-05-19T09:12:53.775Z,36.24
2019-05-19T09:15:22.455Z,38.22
2019-05-19T09:17:54.092Z,38.23
2019-05-19T09:20:21.544Z,38.38
2019-05-19T09:22:50.205Z,37.47
2019-05-19T09:25:18.878Z,37.07
2019-05-19T09:27:47.578Z,37.02
2019-05-19T09:30:16.635Z,38.11
2019-05-19T09:32:45.323Z,38.62
2019-05-19T09:35:15.236Z,36.90
2019-05-19T09:37:43.886Z,38.25
2019-05-19T09:40:13.777Z,38.58
2019-05-19T09:42:42.458Z,39.56
2019-05-19T09:45:13.058Z,39.37
2019-05-19T09:47:42.253Z,38.63
2019-05-19T09:50:11.310Z,39.47
2019-05-19T09:52:39.996Z,39.31
2019-05-19T09:55:09.686Z,38.61
2019-05-19T09:57:38.358Z,36.79
2019-05-19T10:00:08.834Z,37.21
2019-05-19T10:02:37.512Z,36.69
2019-05-19T10:05:07.770Z,36.23
2019-05-19T10:07:36.433Z,36.40
2019-05-19T10:10:16.194Z,36.41
2019-05-19T10:12:44.883Z,34.23
2019-05-19T10:15:14.378Z,33.13
2019-05-19T10:17:43.073Z,33.30
2019-05-19T10:20:12.843Z,35.61
2019-05-19T10:22:41.465Z,35.46
2019-05-19T10:25:21.802Z,35.98
2019-05-19T10:27:41.139Z,35.33
2019-05-19T10:30:10.715Z,36.41
2019-05-19T10:32:39.391Z,35.49
2019-05-19T10:35:08.583Z,34.21
2019-05-19T10:37:37.288Z,34.06
2019-05-19T10:40:07.114Z,33.92
2019-05-19T10:42:36.010Z,32.94
2019-05-19T10:45:10.142Z,33.17
2019-05-19T10:47:38.798Z,34.53
2019-05-19T10:50:08.112Z,34.34
2019-05-19T10:52:36.793Z,35.25
2019-05-19T10:55:07.465Z,34.25
2019-05-19T10:57:36.137Z,34.70
2019-05-19T11:00:06.513Z,34.70
2019-05-19T11:02:35.189Z,34.40
2019-05-19T11:05:04.974Z,33.71
2019-05-19T11:07:33.658Z,33.59
2019-05-19T11:10:02.338Z,33.44
2019-05-19T11:12:31.020Z,33.63
2019-05-19T11:14:59.699Z,33.38
2019-05-19T11:17:28.383Z,34.84
2019-05-19T11:19:57.072Z,34.84
2019-05-19T11:22:25.738Z,35.51
2019-05-19T11:24:54.404Z,35.41
2019-05-19T11:27:23.086Z,36.16
2019-05-19T11:29:51.778Z,36.93
2019-05-19T11:32:20.476Z,37.50
2019-05-19T11:34:49.200Z,36.99
2019-05-19T11:37:17.885Z,36.62
2019-05-19T11:39:46.560Z,36.22
2019-05-19T11:42:15.227Z,34.95
2019-05-19T11:44:43.913Z,35.36
2019-05-19T11:47:12.624Z,35.52
2019-05-19T11:49:41.363Z,34.39
2019-05-19T11:52:10.019Z,33.60
2019-05-19T11:54:38.797Z,32.33
2019-05-19T11:57:07.498Z,32.69
2019-05-19T11:59:36.174Z,32.34
2019-05-19T12:02:04.966Z,31.40
2019-05-19T12:04:33.683Z,31.26
2019-05-19T12:07:02.362Z,31.14
2019-05-19T12:09:31.047Z,30.67
2019-05-19T12:11:59.821Z,29.85
2019-05-19T12:14:31.472Z,29.26
2019-05-19T12:17:01.492Z,29.04
2019-05-19T12:19:30.256Z,28.75
2019-05-19T12:21:58.981Z,28.57
2019-05-19T12:24:27.686Z,28.18
2019-05-19T12:26:56.378Z,27.77
2019-05-19T12:29:25.089Z,27.29
2019-05-19T12:31:53.776Z,27.38
2019-05-19T12:34:22.495Z,27.78
2019-05-19T12:36:51.215Z,27.87
2019-05-19T12:39:19.925Z,27.49
2019-05-19T12:41:48.690Z,27.33
2019-05-19T12:44:17.399Z,27.46
2019-05-19T12:46:46.069Z,27.34
2019-05-19T12:49:17.510Z,26.90
2019-05-19T12:51:46.181Z,26.48
2019-05-19T12:54:14.909Z,26.73
2019-05-19T12:56:43.573Z,26.63
2019-05-19T12:59:13.165Z,26.24
2019-05-19T13:01:41.848Z,26.11
2019-05-19T13:04:10.540Z,25.87
2019-05-19T13:06:39.270Z,25.46
2019-05-19T13:09:08.351Z,25.84
2019-05-19T13:11:37.047Z,26.44
2019-05-19T13:14:05.712Z,26.71
2019-05-19T13:16:34.401Z,27.20
2019-05-19T13:19:04.736Z,26.65
2019-05-19T13:21:33.756Z,26.18
2019-05-19T13:24:02.449Z,26.29
2019-05-19T13:26:31.153Z,25.79
2019-05-19T13:28:59.822Z,25.93
2019-05-19T13:31:28.512Z,26.14
2019-05-19T13:33:57.198Z,26.05
2019-05-19T13:36:25.920Z,25.91
2019-05-19T13:38:54.572Z,26.19
2019-05-19T13:41:24.792Z,26.52
2019-05-19T13:43:53.468Z,27.40
2019-05-19T13:46:22.136Z,28.77
2019-05-19T13:48:50.806Z,29.92
2019-05-19T13:51:19.512Z,30.37
2019-05-19T13:53:48.181Z,30.43
2019-05-19T13:56:16.886Z,30.39
2019-05-19T13:58:45.539Z,31.03
2019-05-19T14:01:27.669Z,31.57
2019-05-19T14:03:44.672Z,31.52
2019-05-19T14:06:13.344Z,31.77
2019-05-19T14:08:42.015Z,31.39
2019-05-19T14:11:10.703Z,31.70
2019-05-19T14:13:39.465Z,32.55
2019-05-19T14:16:08.143Z,32.89
2019-05-19T14:18:36.898Z,32.95
2019-05-19T14:21:05.595Z,31.53
2019-05-19T14:23:34.351Z,30.45
2019-05-19T14:26:03.048Z,29.16
2019-05-19T14:28:31.738Z,28.93
2019-05-19T14:31:00.529Z,28.96
2019-05-19T14:33:29.196Z,29.33
2019-05-19T14:35:57.896Z,29.54
2019-05-19T14:38:26.580Z,29.05
2019-05-19T14:40:55.271Z,28.80
2019-05-19T14:43:25.526Z,28.28
2019-05-19T14:45:54.222Z,27.20
2019-05-19T14:48:22.921Z,27.34
2019-05-19T14:50:51.588Z,27.37
2019-05-19T14:53:20.268Z,27.03
2019-05-19T14:55:48.949Z,26.98
2019-05-19T14:58:17.627Z,26.91
2019-05-19T15:00:47.821Z,26.87
2019-05-19T15:03:16.508Z,26.74
2019-05-19T15:05:46.466Z,26.70
2019-05-19T15:08:15.161Z,27.08
2019-05-19T15:10:43.825Z,27.57
2019-05-19T15:13:13.714Z,27.14
2019-05-19T15:15:42.379Z,26.61
2019-05-19T15:18:12.527Z,26.74
2019-05-19T15:20:41.226Z,26.84
2019-05-19T15:23:09.891Z,26.90
2019-05-19T15:25:38.620Z,26.28
2019-05-19T15:28:07.300Z,26.36
2019-05-19T15:30:36.035Z,26.44
2019-05-19T15:33:04.689Z,26.62
2019-05-19T15:35:33.376Z,26.59
2019-05-19T15:38:02.070Z,26.38
2019-05-19T15:40:30.756Z,26.43
2019-05-19T15:42:59.449Z,26.13
2019-05-19T15:45:28.137Z,26.53
2019-05-19T15:47:56.827Z,27.34
2019-05-19T15:50:25.518Z,28.35
2019-05-19T15:52:54.184Z,28.65
2019-05-19T15:55:22.901Z,28.19
2019-05-19T15:57:51.575Z,27.84
2019-05-19T16:00:22.425Z,27.89
2019-05-19T16:02:51.203Z,27.59
2019-05-19T16:05:19.875Z,27.56
2019-05-19T16:07:48.561Z,27.65
2019-05-19T16:10:17.724Z,27.22
2019-05-19T16:12:46.401Z,26.71
2019-05-19T16:15:15.455Z,26.27
2019-05-19T16:17:44.159Z,25.72
2019-05-19T16:20:13.476Z,25.45
2019-05-19T16:22:42.142Z,25.12
2019-05-19T16:25:11.427Z,25.02
2019-05-19T16:27:40.199Z,24.86
2019-05-19T16:30:09.581Z,24.74
2019-05-19T16:32:38.242Z,24.61
2019-05-19T16:35:08.167Z,24.53
2019-05-19T16:37:36.835Z,24.37
2019-05-19T16:40:07.023Z,24.21
2019-05-19T16:42:35.707Z,24.02
2019-05-19T16:45:06.784Z,23.95
2019-05-19T16:47:35.470Z,23.85
2019-05-19T16:50:05.899Z,23.77
2019-05-19T16:52:34.613Z,23.72
2019-05-19T16:55:07.809Z,23.54
2019-05-19T16:57:39.756Z,23.43
2019-05-19T17:00:08.806Z,23.41
2019-05-19T17:02:37.529Z,23.31
2019-05-19T17:05:07.332Z,23.30
2019-05-19T17:07:36.019Z,23.25
2019-05-19T17:10:09.413Z,23.16
2019-05-19T17:12:39.627Z,23.12
2019-05-19T17:15:09.197Z,23.08
2019-05-19T17:17:37.931Z,22.95
2019-05-19T17:20:08.726Z,22.84
2019-05-19T17:22:37.401Z,22.82
2019-05-19T17:25:07.610Z,22.70
2019-05-19T17:27:36.285Z,22.65
2019-05-19T17:30:07.831Z,22.58
2019-05-19T17:32:36.519Z,22.48
2019-05-19T17:35:07.452Z,22.42
2019-05-19T17:37:36.226Z,22.33
2019-05-19T17:40:08.042Z,22.21
2019-05-19T17:42:37.432Z,22.10
2019-05-19T17:45:07.795Z,21.98
2019-05-19T17:47:36.566Z,21.85
2019-05-19T17:50:06.427Z,21.78
2019-05-19T17:52:35.202Z,21.66
2019-05-19T17:55:04.985Z,21.62
2019-05-19T17:57:34.472Z,21.45
2019-05-19T18:00:03.931Z,21.37
2019-05-19T18:02:32.599Z,21.15
2019-05-19T18:05:01.290Z,21.06
2019-05-19T18:07:31.175Z,20.90
2019-05-19T18:09:59.851Z,20.76
2019-05-19T18:12:28.521Z,20.64
2019-05-19T18:14:57.224Z,20.51
2019-05-19T18:17:25.900Z,20.45
2019-05-19T18:19:54.622Z,20.41
2019-05-19T18:22:23.311Z,20.38
2019-05-19T18:24:51.987Z,20.24
2019-05-19T18:27:20.678Z,20.23
2019-05-19T18:29:49.408Z,20.19
2019-05-19T18:32:18.066Z,20.11
2019-05-19T18:34:46.745Z,19.94
2019-05-19T18:37:15.422Z,19.90
2019-05-19T18:39:44.105Z,19.78
2019-05-19T18:42:12.789Z,19.64
2019-05-19T18:44:41.477Z,19.62
2019-05-19T18:47:10.193Z,19.54
2019-05-19T18:49:39.202Z,19.57
2019-05-19T18:52:07.883Z,19.37
2019-05-19T18:54:38.006Z,19.31
2019-05-19T18:57:06.682Z,19.26
2019-05-19T18:59:46.886Z,19.17
2019-05-19T19:02:06.799Z,19.12
2019-05-19T19:04:35.468Z,19.06
2019-05-19T19:07:04.152Z,19.01
2019-05-19T19:09:32.812Z,18.67
2019-05-19T19:12:01.517Z,18.67
2019-05-19T19:14:31.039Z,18.61
2019-05-19T19:16:59.726Z,18.53
2019-05-19T19:19:28.410Z,18.42
2019-05-19T19:21:57.081Z,18.36
2019-05-19T19:24:25.759Z,18.44
2019-05-19T19:26:54.446Z,18.44
2019-05-19T19:29:23.108Z,18.48
2019-05-19T19:31:51.803Z,18.22
2019-05-19T19:34:20.472Z,18.22
2019-05-19T19:36:49.136Z,18.16
2019-05-19T19:39:17.802Z,18.17
2019-05-19T19:41:46.470Z,18.07
2019-05-19T19:44:15.157Z,18.07
2019-05-19T19:46:43.824Z,18.05
2019-05-19T19:49:12.520Z,18.13
2019-05-19T19:51:41.192Z,18.13
2019-05-19T19:54:09.879Z,18.08
2019-05-19T19:56:38.565Z,17.97
2019-05-19T19:59:07.252Z,17.81
2019-05-19T20:01:35.980Z,17.81
2019-05-19T20:04:04.677Z,17.71
2019-05-19T20:06:33.366Z,17.62
2019-05-19T20:45:58.622Z,17.04
2019-05-19T20:48:27.311Z,16.95
2019-05-19T20:50:55.965Z,16.86
2019-05-19T20:53:24.661Z,16.95
2019-05-19T20:55:53.368Z,16.83
2019-05-19T20:58:22.058Z,16.84
2019-05-19T21:00:51.913Z,16.78
2019-05-19T21:03:20.801Z,16.81
2019-05-19T21:05:49.463Z,16.88
2019-05-19T21:08:18.143Z,16.87
2019-05-19T21:10:46.806Z,16.80
2019-05-19T21:13:15.497Z,16.91
2019-05-19T21:15:44.174Z,16.98
2019-05-19T21:18:12.833Z,16.95
2019-05-19T21:20:41.496Z,16.93
2019-05-19T21:23:10.517Z,16.75
2019-05-19T21:25:42.195Z,16.82
2019-05-19T21:28:10.892Z,16.77
2019-05-19T21:30:39.585Z,16.78
2019-05-19T21:33:08.249Z,16.86
2019-05-19T21:35:36.931Z,16.73
2019-05-19T21:38:05.623Z,16.61
2019-05-19T21:40:34.316Z,16.60
2019-05-19T21:43:02.992Z,16.68
2019-05-19T21:45:31.676Z,16.72
2019-05-19T21:48:00.381Z,16.91
2019-05-19T21:50:29.150Z,16.83
2019-05-19T21:52:57.843Z,16.72
2019-05-19T21:55:26.588Z,16.87
2019-05-19T21:57:55.266Z,16.89
2019-05-19T22:00:25.705Z,16.81
2019-05-19T22:02:54.384Z,16.77
2019-05-19T22:05:23.162Z,16.83
2019-05-19T22:08:06.219Z,16.65
2019-05-19T22:10:35.012Z,16.69
2019-05-19T22:13:03.773Z,16.64
2019-05-19T22:15:32.440Z,17.04
2019-05-19T22:18:01.148Z,17.05
2019-05-19T22:20:29.826Z,16.85
2019-05-19T22:22:58.484Z,16.76
2019-05-19T22:25:27.168Z,16.78
2019-05-19T22:27:55.837Z,16.69
2019-05-19T22:30:25.418Z,16.63
2019-05-19T22:32:54.095Z,16.73
2019-05-19T22:35:22.788Z,16.66
2019-05-19T22:37:51.470Z,16.66
2019-05-19T22:40:20.155Z,16.59
2019-05-19T22:42:48.817Z,16.44
2019-05-19T22:45:18.194Z,16.38
2019-05-19T22:47:46.876Z,16.61
2019-05-19T22:50:15.808Z,16.58
2019-05-19T22:52:44.491Z,16.54
2019-05-19T22:55:13.372Z,16.64
2019-05-19T22:57:42.042Z,16.59
2019-05-19T23:00:13.029Z,16.48
2019-05-19T23:02:41.725Z,16.74
2019-05-19T23:05:10.627Z,16.76
2019-05-19T23:07:40.937Z,16.79
2019-05-19T23:10:10.080Z,16.71
2019-05-19T23:12:38.837Z,16.76
2019-05-19T23:15:08.309Z,16.79
2019-05-19T23:17:36.972Z,16.66
2019-05-19T23:20:06.452Z,16.66
2019-05-19T23:22:35.143Z,16.75
2019-05-19T23:25:05.006Z,16.72
2019-05-19T23:27:33.793Z,16.67
2019-05-19T23:30:02.495Z,16.62
2019-05-19T23:32:31.172Z,16.55
2019-05-19T23:34:59.837Z,16.44
2019-05-19T23:37:28.524Z,16.31
2019-05-19T23:39:57.186Z,16.28
2019-05-19T23:42:25.974Z,16.16
2019-05-19T23:44:54.635Z,16.22
2019-05-19T23:47:23.303Z,16.13
2019-05-19T23:49:51.977Z,16.03
2019-05-19T23:52:20.651Z,16.05
2019-05-19T23:54:49.324Z,16.09
2019-05-19T23:57:18.090Z,16.06
2019-05-19T23:59:46.777Z,16.07
